Time;durP1;ratioP1;P1;durP2;ratioP2;P2;SDS_P1;SDS_P2;PMS_P1;PMS_P2;Temp;Humidity;BMP_temperature;BMP_pressure;BME280_temperature;BME280_humidity;BME280_pressure;Samples;Min_cycle;Max_cycle;Signal;HPM_P1;HPM_P2
2022/09/07 00:03:28;;;;;;;6.13;3.37;;;21.00;78.00;;;;;;20678309;28;20638;-64
2022/09/07 00:13:32;;;;;;;6.10;3.60;;;20.90;78.50;;;;;;20676376;28;20246;-64
2022/09/07 00:23:36;;;;;;;7.30;3.20;;;20.70;79.30;;;;;;20675907;28;20231;-66
2022/09/07 00:33:38;;;;;;;5.17;3.17;;;20.70;80.30;;;;;;20674988;28;20240;-63
2022/09/07 00:44:19;;;;;;;6.90;3.57;;;20.60;81.20;;;;;;20677546;28;20209;-63
2022/09/07 00:54:29;;;;;;;7.83;3.13;;;20.60;81.20;;;;;;20636615;28;20251;-63
2022/09/07 01:04:31;;;;;;;5.87;3.00;;;20.40;80.30;;;;;;20674169;28;20210;-63
2022/09/07 01:14:36;;;;;;;8.60;2.90;;;20.20;80.10;;;;;;20673192;28;20245;-74
2022/09/07 01:25:08;;;;;;;11.20;3.63;;;20.10;79.70;;;;;;20670414;28;20218;-64
2022/09/07 01:35:51;;;;;;;10.67;3.23;;;20.10;80.30;;;;;;20669581;28;20242;-63
2022/09/07 01:45:55;;;;;;;8.90;3.53;;;20.00;80.40;;;;;;20575071;28;20221;-65
2022/09/07 01:56:26;;;;;;;7.23;3.60;;;19.80;80.70;;;;;;20587505;28;20336;-63
2022/09/07 02:06:27;;;;;;;7.47;3.37;;;19.80;81.20;;;;;;20585746;28;20225;-78
2022/09/07 02:16:32;;;;;;;5.33;3.00;;;19.80;81.70;;;;;;20589712;28;20583;-78
2022/09/07 02:26:37;;;;;;;5.93;3.67;;;19.80;82.90;;;;;;20591357;28;20228;-78
2022/09/07 02:36:44;;;;;;;6.13;3.37;;;19.80;83.60;;;;;;20597226;28;20240;-79
2022/09/07 02:47:03;;;;;;;11.63;3.80;;;19.70;84.20;;;;;;20668607;28;20264;-76
2022/09/07 02:57:24;;;;;;;6.67;3.60;;;19.70;84.10;;;;;;20666295;28;20335;-78
2022/09/07 03:07:36;;;;;;;13.23;3.50;;;19.60;83.80;;;;;;20666342;28;20219;-61
2022/09/07 03:17:45;;;;;;;7.97;3.57;;;19.60;84.60;;;;;;20664887;28;20245;-63
2022/09/07 03:27:46;;;;;;;10.60;3.60;;;19.60;84.50;;;;;;20673782;28;20208;-62
2022/09/07 03:37:48;;;;;;;7.30;3.83;;;19.60;84.70;;;;;;20677793;28;20241;-63
2022/09/07 03:47:50;;;;;;;10.70;3.83;;;19.60;85.50;;;;;;20677595;28;20235;-63
2022/09/07 03:57:51;;;;;;;9.83;4.10;;;19.60;86.60;;;;;;20676212;28;20250;-61
2022/09/07 04:07:53;;;;;;;7.27;3.90;;;19.50;88.10;;;;;;20675645;28;20695;-64
2022/09/07 04:17:55;;;;;;;7.57;4.23;;;19.50;89.20;;;;;;20674990;28;20258;-63
2022/09/07 04:27:57;;;;;;;8.90;4.20;;;19.60;90.30;;;;;;20669809;28;21038;-62
2022/09/07 04:37:58;;;;;;;7.10;4.20;;;20.20;92.20;;;;;;20670448;28;20232;-63
2022/09/07 04:48:00;;;;;;;9.93;4.30;;;19.90;92.60;;;;;;20672172;28;20214;-71
2022/09/07 04:58:02;;;;;;;8.53;4.20;;;19.90;92.90;;;;;;20671642;28;20241;-75
2022/09/07 05:08:04;;;;;;;12.37;4.63;;;19.90;93.00;;;;;;20670671;28;20267;-73
2022/09/07 05:18:06;;;;;;;12.17;4.30;;;19.90;93.10;;;;;;20669568;28;20252;-64
2022/09/07 05:28:08;;;;;;;9.57;4.23;;;20.00;93.30;;;;;;20668863;28;20212;-64
2022/09/07 05:38:09;;;;;;;10.13;4.13;;;20.00;93.40;;;;;;20667701;28;20236;-73
2022/09/07 05:48:11;;;;;;;9.00;4.37;;;20.10;93.40;;;;;;20665987;28;20217;-71
2022/09/07 05:58:13;;;;;;;7.63;4.30;;;20.20;93.30;;;;;;20664098;28;20643;-72
2022/09/07 06:08:14;;;;;;;37.10;7.57;;;20.40;93.50;;;;;;20665849;28;20575;-73
2022/09/07 06:18:16;;;;;;;20.80;6.97;;;20.50;93.40;;;;;;20666244;28;20252;-71
2022/09/07 06:28:19;;;;;;;21.07;6.60;;;20.60;93.40;;;;;;20664921;28;20618;-71
2022/09/07 06:38:20;;;;;;;18.63;6.10;;;20.60;93.50;;;;;;20664694;28;20595;-71
2022/09/07 06:48:23;;;;;;;25.43;5.53;;;20.90;93.40;;;;;;20664062;28;20212;-70
2022/09/07 06:58:25;;;;;;;19.67;6.17;;;21.10;93.20;;;;;;20667560;28;20573;-71
2022/09/07 07:08:27;;;;;;;15.00;5.77;;;21.30;93.00;;;;;;20677945;28;20213;-70
2022/09/07 07:18:29;;;;;;;10.33;4.70;;;21.50;92.90;;;;;;20678230;28;20257;-72
2022/09/07 07:28:31;;;;;;;22.60;5.03;;;21.70;92.70;;;;;;20677309;28;20206;-70
2022/09/07 07:38:55;;;;;;;10.37;3.97;;;21.90;92.30;;;;;;20676150;28;20769;-73
2022/09/07 07:49:02;;;;;;;6.60;3.30;;;22.10;92.10;;;;;;20675608;28;20288;-72
2022/09/07 07:59:03;;;;;;;5.30;2.43;;;22.30;91.60;;;;;;20674777;28;20284;-71
2022/09/07 08:09:05;;;;;;;6.30;2.53;;;22.60;91.20;;;;;;20673873;28;20209;-73
2022/09/07 08:19:07;;;;;;;4.90;2.50;;;22.90;90.50;;;;;;20674237;28;20296;-73
2022/09/07 08:29:08;;;;;;;7.03;3.23;;;23.30;88.90;;;;;;20673306;28;20238;-76
2022/09/07 08:39:10;;;;;;;9.03;2.37;;;23.50;87.20;;;;;;20671942;28;20233;-75
2022/09/07 08:49:19;;;;;;;4.57;2.50;;;23.70;85.70;;;;;;20671088;28;20214;-76
2022/09/07 08:59:29;;;;;;;6.93;3.07;;;24.00;85.00;;;;;;20670616;28;20715;-72
2022/09/07 09:09:36;;;;;;;6.07;2.90;;;24.10;84.40;;;;;;20669437;28;20210;-71
2022/09/07 09:19:57;;;;;;;6.07;2.23;;;24.30;83.90;;;;;;20667682;28;20248;-75
2022/09/07 09:29:58;;;;;;;8.57;2.73;;;24.50;83.30;;;;;;20650328;28;20655;-74
2022/09/07 09:40:00;;;;;;;4.27;2.30;;;24.70;82.70;;;;;;20666794;28;20595;-73
2022/09/07 09:50:14;;;;;;;11.27;2.50;;;25.00;82.00;;;;;;20650057;28;20238;-75
2022/09/07 10:00:36;;;;;;;16.87;3.47;;;25.20;80.70;;;;;;20666023;28;20348;-76
2022/09/07 10:11:04;;;;;;;4.60;2.33;;;25.20;80.50;;;;;;20665778;28;20237;-72
2022/09/07 10:21:20;;;;;;;8.43;2.80;;;25.30;80.30;;;;;;20665442;28;20237;-71
2022/09/07 10:31:30;;;;;;;6.97;2.10;;;25.50;79.20;;;;;;20667666;28;20209;-74
2022/09/07 10:41:44;;;;;;;8.93;2.33;;;25.50;79.10;;;;;;20680235;28;20229;-69
2022/09/07 10:52:24;;;;;;;5.60;1.90;;;25.30;78.80;;;;;;20679605;28;20205;-72
2022/09/07 11:02:39;;;;;;;7.03;2.23;;;25.50;78.10;;;;;;20463438;28;20373;-72
2022/09/07 11:12:44;;;;;;;5.03;2.00;;;25.70;77.10;;;;;;20678506;28;20607;-70
2022/09/07 11:22:50;;;;;;;18.77;9.77;;;25.80;76.20;;;;;;20675040;28;20236;-70
2022/09/07 11:33:15;;;;;;;14.03;5.53;;;25.80;75.20;;;;;;20674005;28;20733;-70
2022/09/07 11:43:27;;;;;;;6.07;3.30;;;25.80;75.00;;;;;;20675053;28;20264;-71
2022/09/07 11:53:33;;;;;;;5.13;1.90;;;26.10;74.30;;;;;;20675369;28;20230;-71
2022/09/07 12:03:52;;;;;;;3.20;2.10;;;26.40;72.30;;;;;;20675222;28;20210;-71
2022/09/07 12:14:20;;;;;;;3.93;2.07;;;26.20;71.50;;;;;;20673639;28;20245;-70
2022/09/07 12:24:37;;;;;;;5.97;2.70;;;26.50;70.60;;;;;;20673426;28;20268;-72
2022/09/07 12:34:54;;;;;;;3.97;2.10;;;26.80;68.20;;;;;;20672850;28;20292;-73
2022/09/07 12:45:26;;;;;;;8.33;2.43;;;26.70;65.50;;;;;;20672953;28;20650;-75
2022/09/07 12:56:15;;;;;;;3.87;1.70;;;26.60;65.90;;;;;;20652894;28;20230;-73
2022/09/07 13:06:58;;;;;;;3.90;1.73;;;26.60;65.10;;;;;;20669783;28;20213;-71
2022/09/07 13:17:35;;;;;;;11.83;2.10;;;26.80;65.00;;;;;;20456644;28;20238;-74
2022/09/07 13:27:55;;;;;;;4.17;1.90;;;26.80;64.40;;;;;;20668164;28;20248;-74
2022/09/07 13:37:59;;;;;;;4.50;2.17;;;26.60;64.30;;;;;;20667117;28;20257;-73
2022/09/07 13:48:19;;;;;;;3.63;1.97;;;26.70;63.50;;;;;;20667258;28;20701;-73
2022/09/07 13:58:36;;;;;;;3.93;1.70;;;27.10;62.30;;;;;;20666067;28;20288;-74
2022/09/07 14:08:38;;;;;;;4.47;2.00;;;27.30;61.40;;;;;;20665400;28;20214;-74
2022/09/07 14:18:41;;;;;;;4.07;2.23;;;27.20;61.10;;;;;;20665311;28;20304;-72
2022/09/07 14:28:44;;;;;;;5.30;2.10;;;27.40;60.30;;;;;;20665204;28;20598;-75
2022/09/07 14:38:48;;;;;;;3.47;1.50;;;27.50;58.90;;;;;;20664836;28;20229;-74
2022/09/07 14:49:19;;;;;;;2.67;1.80;;;27.50;58.00;;;;;;20665574;28;20201;-75
2022/09/07 14:59:35;;;;;;;7.53;2.20;;;27.50;57.40;;;;;;20647701;28;20649;-75
2022/09/07 15:09:37;;;;;;;4.97;1.90;;;27.40;57.60;;;;;;20664317;28;20214;-75
2022/09/07 15:19:39;;;;;;;4.37;1.50;;;27.20;57.50;;;;;;20667999;28;20242;-72
2022/09/07 15:29:40;;;;;;;3.55;1.40;;;27.40;56.30;;;;;;20678255;28;20202;-74
2022/09/07 15:39:42;;;;;;;3.53;1.60;;;27.90;54.90;;;;;;20677032;28;20234;-73
2022/09/07 15:49:44;;;;;;;2.03;1.40;;;27.40;55.60;;;;;;20676834;28;20214;-72
2022/09/07 15:59:51;;;;;;;7.67;1.83;;;27.20;55.80;;;;;;20675331;28;20300;-75
2022/09/07 16:09:53;;;;;;;7.80;1.80;;;27.10;56.00;;;;;;20675319;28;20210;-75
2022/09/07 16:19:55;;;;;;;3.40;1.83;;;26.90;57.20;;;;;;20656788;28;20241;-73
2022/09/07 16:29:56;;;;;;;2.87;1.80;;;26.80;58.30;;;;;;20673425;28;20719;-73
2022/09/07 16:39:58;;;;;;;2.83;1.70;;;26.50;58.80;;;;;;20672845;28;20622;-74
2022/09/07 16:50:00;;;;;;;5.47;1.87;;;26.30;59.40;;;;;;20672525;28;20313;-73
2022/09/07 17:00:02;;;;;;;3.27;1.63;;;26.20;59.50;;;;;;20672063;28;20305;-73
2022/09/07 17:10:04;;;;;;;6.20;1.93;;;26.20;59.80;;;;;;20670960;28;20695;-74
2022/09/07 17:20:07;;;;;;;3.80;1.50;;;26.10;59.90;;;;;;20670138;28;20668;-73
2022/09/07 17:30:09;;;;;;;2.03;1.60;;;25.90;59.80;;;;;;20669740;28;20234;-75
2022/09/07 17:40:10;;;;;;;3.83;1.53;;;25.80;59.60;;;;;;20668010;28;20249;-74
2022/09/07 17:50:13;;;;;;;2.23;1.50;;;25.70;59.90;;;;;;20668285;28;20213;-75
2022/09/07 18:00:14;;;;;;;2.70;1.70;;;25.50;60.30;;;;;;20667676;28;20234;-74
2022/09/07 18:10:17;;;;;;;5.17;1.40;;;25.30;60.50;;;;;;20668916;28;20210;-74
2022/09/07 18:20:19;;;;;;;5.17;1.70;;;25.10;60.60;;;;;;20667483;28;20606;-74
2022/09/07 18:30:20;;;;;;;6.77;1.47;;;25.00;60.20;;;;;;20666807;28;20206;-76
2022/09/07 18:40:22;;;;;;;1.73;1.53;;;24.90;60.00;;;;;;20665012;28;20229;-78
2022/09/07 18:50:24;;;;;;;4.73;1.80;;;24.70;59.80;;;;;;20667212;28;20218;-73
2022/09/07 19:00:26;;;;;;;9.77;1.50;;;24.60;60.10;;;;;;20679026;28;20238;-76
2022/09/07 19:10:34;;;;;;;3.07;1.47;;;24.50;60.30;;;;;;20679746;28;20481;-78
2022/09/07 19:20:36;;;;;;;6.40;1.50;;;24.50;60.40;;;;;;20675509;28;20717;-79
2022/09/07 19:30:38;;;;;;;4.03;1.60;;;24.30;60.20;;;;;;20677789;28;20237;-79
2022/09/07 19:40:39;;;;;;;3.17;2.00;;;24.20;60.30;;;;;;20675778;28;20229;-76
2022/09/07 19:50:43;;;;;;;2.23;1.73;;;24.00;60.50;;;;;;20675882;28;20327;-78
2022/09/07 20:00:45;;;;;;;2.27;1.50;;;23.90;60.90;;;;;;20674624;28;20296;-75
2022/09/07 20:10:46;;;;;;;2.90;1.70;;;23.80;61.20;;;;;;20666877;28;20718;-75
2022/09/07 20:20:48;;;;;;;3.63;2.30;;;23.60;62.50;;;;;;20667010;28;20296;-76
2022/09/07 20:30:50;;;;;;;3.37;2.20;;;23.50;63.50;;;;;;20666418;28;20206;-77
2022/09/07 20:40:54;;;;;;;2.83;2.20;;;23.40;63.60;;;;;;20664349;28;20601;-75
2022/09/07 20:51:00;;;;;;;3.70;2.30;;;23.40;64.10;;;;;;20664173;28;20210;-78
2022/09/07 21:01:02;;;;;;;1.93;1.73;;;23.30;64.50;;;;;;20663405;28;20284;-77
2022/09/07 21:11:05;;;;;;;5.93;2.23;;;23.20;64.80;;;;;;20662387;28;20248;-76
2022/09/07 21:21:07;;;;;;;3.90;1.87;;;23.10;65.10;;;;;;20660440;28;20257;-76
2022/09/07 21:31:25;;;;;;;3.67;2.07;;;22.90;66.00;;;;;;20660552;28;20248;-75
2022/09/07 21:41:27;;;;;;;4.10;1.77;;;22.80;67.00;;;;;;20659181;28;20238;-75
2022/09/07 21:51:29;;;;;;;11.60;2.13;;;22.70;67.10;;;;;;20659511;28;20213;-76
2022/09/07 22:01:32;;;;;;;3.37;1.87;;;22.50;67.30;;;;;;20659649;28;20269;-75
2022/09/07 22:11:33;;;;;;;5.93;2.00;;;22.40;67.70;;;;;;20642413;28;20689;-76
2022/09/07 22:21:35;;;;;;;4.17;2.00;;;22.40;67.90;;;;;;20659653;28;20277;-75
2022/09/07 22:31:38;;;;;;;5.43;1.90;;;22.30;68.20;;;;;;20670721;28;20257;-76
2022/09/07 22:41:40;;;;;;;5.20;2.20;;;22.20;69.20;;;;;;20677132;28;20256;-75
2022/09/07 22:51:43;;;;;;;3.07;1.60;;;22.20;69.40;;;;;;20675734;28;20678;-76
2022/09/07 23:01:45;;;;;;;4.43;2.17;;;22.20;69.60;;;;;;20674984;28;20812;-75
2022/09/07 23:11:47;;;;;;;5.47;2.20;;;22.20;70.30;;;;;;20674590;28;20209;-76
2022/09/07 23:21:48;;;;;;;2.83;1.90;;;22.20;70.80;;;;;;20673158;28;20292;-76
2022/09/07 23:31:50;;;;;;;3.73;1.80;;;22.20;70.90;;;;;;20672733;28;20210;-76
2022/09/07 23:41:52;;;;;;;5.07;2.00;;;22.10;71.40;;;;;;20670907;28;20236;-75
2022/09/07 23:51:53;;;;;;;6.83;2.10;;;22.00;71.90;;;;;;20670994;28;20206;-77
